Terminal Aerodrome Forecast
Issued by NWS

Home | Current Version | Previous Version | Text Only | Print | Product List | Glossary On
Versions: 1 2 3 4 5 6 7 8 9 10 11 12 13 14 15
000
FTUS46 KMTR 200500
TAFMRY
TAF
KMRY 200540Z 2006/2106 11003KT P6SM -RA BKN025 OVC035
     FM201600 11003KT P6SM OVC025
     FM201800 24003KT P6SM FEW025 BKN040 OVC100
     FM202200 27005KT P6SM FEW025 BKN040 OVC100
     FM210200 17003KT P6SM OVC015=

USA.gov is the U.S. government's official web portal to all federal, state and local government web resources and services.